Time;durP1;ratioP1;P1;durP2;ratioP2;P2;SDS_P1;SDS_P2;PMS_P1;PMS_P2;Temp;Humidity;BMP_temperature;BMP_pressure;BME280_temperature;BME280_humidity;BME280_pressure;Samples;Min_cycle;Max_cycle;Signal;HPM_P1;HPM_P2
2020/12/01 00:01:49;;;;;;;125.27;54.33;;;;;;;-0.29;80.97;98669.11;1815407;79;21205;-72
2020/12/01 00:04:15;;;;;;;111.37;50.95;;;;;;;-0.41;81.05;98662.67;1815240;79;21059;-72
2020/12/01 00:06:41;;;;;;;95.20;44.30;;;;;;;-0.55;81.12;98666.75;1815437;79;21078;-72
2020/12/01 00:09:06;;;;;;;97.62;44.23;;;;;;;-0.67;81.54;98664.63;1815395;79;20921;-72
2020/12/01 00:11:32;;;;;;;93.85;43.75;;;;;;;-0.72;81.25;98664.88;1815475;78;20989;-72
2020/12/01 00:13:58;;;;;;;95.72;45.70;;;;;;;-0.80;81.28;98667.16;1783615;79;21282;-72
2020/12/01 00:16:23;;;;;;;97.62;44.65;;;;;;;-0.84;81.34;98671.74;1815325;79;21542;-72
2020/12/01 00:18:49;;;;;;;89.75;43.70;;;;;;;-0.87;81.51;98671.08;1815339;79;20897;-72
2020/12/01 00:21:17;;;;;;;86.25;42.40;;;;;;;-0.86;81.57;98667.91;1815277;79;21507;-72
2020/12/01 00:23:43;;;;;;;89.37;40.60;;;;;;;-0.88;81.71;98664.12;1815395;79;21138;-72
2020/12/01 00:26:09;;;;;;;90.70;42.00;;;;;;;-0.90;81.65;98667.48;1810107;79;21413;-72
2020/12/01 00:28:35;;;;;;;85.97;41.77;;;;;;;-0.96;82.08;98667.41;1815383;78;20999;-72
2020/12/01 00:31:01;;;;;;;86.05;38.92;;;;;;;-1.00;81.69;98664.33;1815363;79;21074;-73
2020/12/01 00:33:27;;;;;;;89.07;40.03;;;;;;;-1.04;81.46;98664.37;1815436;78;21118;-72
2020/12/01 00:35:53;;;;;;;101.45;49.88;;;;;;;-1.10;81.89;98670.47;1815407;78;21059;-72
2020/12/01 00:38:20;;;;;;;116.67;55.90;;;;;;;-1.17;82.89;98669.57;1815397;78;20995;-73
2020/12/01 00:40:50;;;;;;;109.20;51.33;;;;;;;-1.21;82.65;98675.76;1815258;79;21118;-73
2020/12/01 00:43:16;;;;;;;86.12;45.15;;;;;;;-1.25;82.64;98671.02;1783375;79;21122;-71
2020/12/01 00:45:43;;;;;;;80.62;40.63;;;;;;;-1.26;82.81;98670.20;1815308;79;21475;-71
2020/12/01 00:48:09;;;;;;;83.62;39.90;;;;;;;-1.30;83.12;98668.91;1815457;79;21094;-71
2020/12/01 00:50:34;;;;;;;76.95;39.35;;;;;;;-1.35;82.97;98669.17;1815290;78;22080;-71
2020/12/01 00:53:00;;;;;;;76.72;34.48;;;;;;;-1.38;82.85;98666.36;1815388;79;20960;-71
2020/12/01 00:55:26;;;;;;;65.03;34.00;;;;;;;-1.43;83.29;98666.94;1815367;78;21605;-71
2020/12/01 00:57:51;;;;;;;91.97;44.48;;;;;;;-1.45;82.93;98666.31;1815311;79;21354;-71
2020/12/01 01:00:21;;;;;;;89.37;44.27;;;;;;;-1.45;82.68;98671.62;1815369;78;20929;-71
2020/12/01 01:02:47;;;;;;;89.83;44.03;;;;;;;-1.46;82.44;98664.64;1815409;79;21557;-72
2020/12/01 01:05:13;;;;;;;130.40;52.70;;;;;;;-1.49;82.17;98666.86;1815276;79;20921;-72
2020/12/01 01:07:38;;;;;;;90.45;44.60;;;;;;;-1.61;82.24;98664.38;1815429;78;21028;-72
2020/12/01 01:10:05;;;;;;;107.95;53.52;;;;;;;-1.70;82.10;98663.66;1815335;79;20866;-72
2020/12/01 01:12:30;;;;;;;98.40;48.02;;;;;;;-1.74;82.28;98659.70;1815392;78;21139;-72
2020/12/01 01:14:56;;;;;;;99.70;49.33;;;;;;;-1.73;82.63;98659.52;1815345;79;21443;-72
2020/12/01 01:17:22;;;;;;;87.47;46.53;;;;;;;-1.71;83.00;98661.98;1815330;78;20893;-72
2020/12/01 01:19:48;;;;;;;87.50;41.30;;;;;;;-1.76;83.02;98659.08;1815247;79;20980;-72
2020/12/01 01:22:13;;;;;;;73.97;31.60;;;;;;;-1.82;83.37;98653.16;1815327;79;21050;-72
2020/12/01 01:24:40;;;;;;;59.85;28.47;;;;;;;-1.87;83.68;98656.39;1815433;78;20877;-72
2020/12/01 01:27:06;;;;;;;58.63;24.92;;;;;;;-1.93;83.19;98651.80;1815369;78;22136;-72
2020/12/01 01:29:31;;;;;;;58.98;28.32;;;;;;;-1.95;82.69;98647.19;1815263;79;20905;-72
2020/12/01 01:31:57;;;;;;;57.78;28.83;;;;;;;-2.00;82.90;98646.91;1815291;79;21098;-72
2020/12/01 01:34:23;;;;;;;56.85;25.70;;;;;;;-2.05;83.24;98639.50;1815345;78;20920;-72
2020/12/01 01:36:49;;;;;;;52.95;25.55;;;;;;;-2.09;82.62;98631.57;1815373;79;21544;-72
2020/12/01 01:39:15;;;;;;;46.85;23.83;;;;;;;-2.18;83.05;98631.85;1815326;78;22025;-72
2020/12/01 01:41:40;;;;;;;48.58;23.15;;;;;;;-2.23;83.04;98629.73;1815241;79;20916;-72
2020/12/01 01:44:19;;;;;;;49.95;21.35;;;;;;;-2.27;83.05;98625.30;1783636;79;21025;-72
2020/12/01 01:46:48;;;;;;;;;;;;;;;-2.29;83.32;98625.99;1817978;79;21131;-72
2020/12/01 01:49:16;;;;;;;;;;;;;;;-2.29;82.73;98627.83;1786119;79;20492;-72
2020/12/01 01:51:47;;;;;;;40.50;20.80;;;;;;;-2.36;82.93;98631.70;1815592;78;21226;-72
2020/12/01 01:54:13;;;;;;;39.13;19.25;;;;;;;-2.45;83.08;98626.17;1815340;79;21055;-72
2020/12/01 01:56:40;;;;;;;46.05;20.45;;;;;;;-2.46;82.74;98625.84;1815474;78;21002;-72
2020/12/01 01:59:06;;;;;;;42.73;20.88;;;;;;;-2.52;82.95;98621.26;1783579;79;21181;-72
2020/12/01 02:01:31;;;;;;;41.40;19.05;;;;;;;-2.50;82.67;98625.88;1815531;79;21056;-72
2020/12/01 02:04:01;;;;;;;45.55;20.75;;;;;;;-2.47;82.68;98620.73;1815527;79;22119;-73
2020/12/01 02:06:51;;;;;;;38.63;19.73;;;;;;;-2.48;83.10;98619.88;1814388;79;21103;-72
2020/12/01 02:09:39;;;;;;;40.08;19.82;;;;;;;-2.49;82.94;98621.39;1815502;79;21055;-72
2020/12/01 02:12:06;;;;;;;50.87;21.07;;;;;;;-2.55;82.67;98615.00;1815834;78;21110;-71
2020/12/01 02:14:38;;;;;;;39.20;20.50;;;;;;;-2.60;82.41;98613.37;1815621;79;21063;-71
2020/12/01 02:17:27;;;;;;;44.93;22.52;;;;;;;-2.68;82.78;98610.30;1815608;78;21586;-72
2020/12/01 02:19:55;;;;;;;45.17;21.12;;;;;;;-2.73;82.78;98607.88;1815597;79;21051;-71
2020/12/01 02:22:23;;;;;;;41.48;19.73;;;;;;;-2.68;83.27;98604.99;1815606;78;21123;-71
2020/12/01 02:24:50;;;;;;;59.88;25.30;;;;;;;-2.62;83.04;98598.97;1815495;78;21095;-71
2020/12/01 02:27:18;;;;;;;49.08;24.02;;;;;;;-2.57;82.94;98607.19;1815478;79;21511;-72
2020/12/01 02:29:46;;;;;;;56.02;27.10;;;;;;;-2.63;82.60;98607.12;1815581;79;21301;-71
2020/12/01 02:32:12;;;;;;;45.38;20.00;;;;;;;-2.69;82.94;98607.33;1783661;79;21044;-72
2020/12/01 02:34:42;;;;;;;53.45;25.80;;;;;;;-2.70;82.56;98606.19;1815573;79;21514;-72
2020/12/01 02:37:08;;;;;;;59.98;29.37;;;;;;;-2.75;82.52;98606.72;1815395;79;21165;-72
2020/12/01 02:39:34;;;;;;;52.58;26.23;;;;;;;-2.70;82.67;98604.86;1815426;79;21122;-71
2020/12/01 02:42:03;;;;;;;45.70;25.15;;;;;;;-2.70;82.52;98604.36;1815469;79;21191;-72
2020/12/01 02:44:28;;;;;;;57.27;28.02;;;;;;;-2.71;82.94;98601.89;1815531;79;21103;-71
2020/12/01 02:46:56;;;;;;;62.78;27.77;;;;;;;-2.75;82.56;98604.06;1815454;79;21058;-72
2020/12/01 02:49:22;;;;;;;49.18;24.05;;;;;;;-2.76;82.62;98600.27;1815464;78;21055;-72
2020/12/01 02:51:47;;;;;;;55.65;27.52;;;;;;;-2.78;82.83;98611.57;1815476;79;21556;-72
2020/12/01 02:54:13;;;;;;;44.75;21.20;;;;;;;-2.82;82.49;98603.63;1815475;79;21354;-71
2020/12/01 02:56:39;;;;;;;48.30;21.50;;;;;;;-2.85;82.51;98608.30;1815456;78;21000;-72
2020/12/01 02:59:05;;;;;;;47.75;21.10;;;;;;;-2.83;82.45;98602.81;1815471;79;21003;-72
2020/12/01 03:01:30;;;;;;;44.60;21.62;;;;;;;-2.88;82.22;98603.87;1815410;79;20956;-72
2020/12/01 03:03:56;;;;;;;45.00;22.15;;;;;;;-2.98;82.03;98605.45;1815518;78;20900;-72
2020/12/01 03:06:22;;;;;;;41.25;19.92;;;;;;;-3.07;82.21;98603.88;1815444;79;21433;-72
2020/12/01 03:08:48;;;;;;;43.95;20.77;;;;;;;-3.13;82.05;98601.42;1815396;79;21023;-72
2020/12/01 03:11:14;;;;;;;39.33;21.57;;;;;;;-3.22;81.98;98597.69;1815448;78;21070;-71
2020/12/01 03:13:40;;;;;;;39.88;18.37;;;;;;;-3.29;81.67;98592.27;1815450;79;20968;-72
2020/12/01 03:16:08;;;;;;;40.17;19.60;;;;;;;-3.32;81.92;98591.31;1815414;78;20924;-72
2020/12/01 03:18:33;;;;;;;44.33;20.70;;;;;;;-3.28;81.91;98593.09;1815180;79;21142;-72
2020/12/01 03:20:59;;;;;;;42.43;20.00;;;;;;;-3.31;82.04;98592.13;1815276;79;21197;-71
2020/12/01 03:23:25;;;;;;;38.33;19.92;;;;;;;-3.31;81.93;98590.30;1815472;78;21519;-71
2020/12/01 03:25:51;;;;;;;39.95;20.35;;;;;;;-3.40;81.91;98587.39;1815358;79;20858;-71
2020/12/01 03:28:16;;;;;;;43.28;22.02;;;;;;;-3.39;82.12;98590.87;1815519;79;21076;-72
2020/12/01 03:30:42;;;;;;;43.90;21.23;;;;;;;-3.34;82.18;98595.94;1815403;79;21110;-72
2020/12/01 03:33:08;;;;;;;43.25;20.48;;;;;;;-3.36;81.88;98594.48;1815415;79;20971;-71
2020/12/01 03:35:34;;;;;;;40.92;20.48;;;;;;;-3.44;82.00;98586.91;1815443;78;21499;-71
2020/12/01 03:38:00;;;;;;;38.17;20.27;;;;;;;-3.53;81.48;98588.47;1815370;79;21178;-71
2020/12/01 03:40:26;;;;;;;36.17;19.42;;;;;;;-3.59;81.57;98586.51;1815395;79;22434;-72
2020/12/01 03:42:52;;;;;;;39.33;19.20;;;;;;;-3.69;81.50;98587.56;1815458;79;21372;-72
2020/12/01 03:45:17;;;;;;;41.10;21.10;;;;;;;-3.71;81.66;98592.72;1815315;79;21138;-71
2020/12/01 03:47:43;;;;;;;42.65;20.40;;;;;;;-3.72;81.83;98587.92;1815427;79;20932;-72
2020/12/01 03:50:09;;;;;;;45.55;20.25;;;;;;;-3.70;81.97;98595.19;1815468;78;21004;-71
2020/12/01 03:52:38;;;;;;;46.08;21.15;;;;;;;-3.70;81.79;98591.72;1815412;78;20940;-72
2020/12/01 03:55:05;;;;;;;42.23;20.92;;;;;;;-3.73;81.75;98596.05;1815579;79;22024;-72
2020/12/01 03:57:40;;;;;;;46.73;22.80;;;;;;;-3.77;81.72;98594.23;1815341;78;21595;-71
2020/12/01 03:59:58;;;;;;;51.85;23.10;;;;;;;-3.80;81.86;98590.63;1813478;79;21127;-71
2020/12/01 04:02:24;;;;;;;54.77;27.82;;;;;;;-3.80;82.20;98586.64;1815420;78;21495;-72
2020/12/01 04:04:50;;;;;;;49.57;22.83;;;;;;;-3.79;82.25;98594.09;1815395;78;20897;-72
2020/12/01 04:07:16;;;;;;;47.70;22.37;;;;;;;-3.77;82.23;98582.81;1815414;78;21409;-72
2020/12/01 04:09:41;;;;;;;39.80;19.50;;;;;;;-3.77;82.09;98581.48;1815283;79;20973;-72
2020/12/01 04:12:07;;;;;;;32.20;15.68;;;;;;;-3.75;82.13;98584.31;1815322;79;20968;-72
2020/12/01 04:14:33;;;;;;;44.73;19.37;;;;;;;-3.79;82.04;98579.52;1815381;79;21451;-72
2020/12/01 04:16:58;;;;;;;56.63;25.75;;;;;;;-3.81;82.16;98576.23;1815390;79;21001;-71
2020/12/01 04:19:24;;;;;;;60.12;26.10;;;;;;;-3.90;82.58;98575.45;1815301;79;22103;-72
2020/12/01 04:21:50;;;;;;;79.10;30.92;;;;;;;-3.88;82.52;98572.12;1815165;79;20901;-72
2020/12/01 04:24:15;;;;;;;59.90;27.55;;;;;;;-3.90;82.18;98570.16;1815355;79;21078;-72
2020/12/01 04:26:41;;;;;;;123.67;56.80;;;;;;;-3.97;81.44;98571.84;1815401;78;21023;-71
2020/12/01 04:29:07;;;;;;;152.20;60.40;;;;;;;-4.08;81.49;98572.25;1815368;79;20985;-71
2020/12/01 04:31:32;;;;;;;124.47;47.60;;;;;;;-4.24;81.24;98570.49;1815321;79;21380;-72
2020/12/01 04:33:58;;;;;;;112.20;48.02;;;;;;;-4.28;81.08;98566.02;1815322;79;20908;-72
2020/12/01 04:36:24;;;;;;;94.70;42.03;;;;;;;-4.26;81.34;98568.02;1815415;78;21111;-71
2020/12/01 04:38:49;;;;;;;99.92;43.17;;;;;;;-4.28;81.38;98563.88;1815271;79;20940;-71
2020/12/01 04:41:15;;;;;;;73.52;30.97;;;;;;;-4.32;81.30;98567.87;1815425;78;20973;-72
2020/12/01 04:43:52;;;;;;;61.73;27.60;;;;;;;-4.36;81.50;98571.38;1758252;79;22047;-71
2020/12/01 04:46:24;;;;;;;69.47;32.42;;;;;;;-4.31;81.82;98565.05;1815359;79;21468;-73
2020/12/01 04:48:54;;;;;;;67.90;31.07;;;;;;;-4.24;81.89;98556.44;1815350;79;21068;-71
2020/12/01 04:51:58;;;;;;;87.60;37.03;;;;;;;-4.15;81.84;98564.16;1814792;79;37911;-72
2020/12/01 04:54:51;;;;;;;74.25;31.87;;;;;;;-4.08;81.95;98561.16;1798632;79;21043;-71
2020/12/01 04:57:40;;;;;;;60.28;25.17;;;;;;;-4.06;81.48;98551.71;1789791;79;21829;-73
2020/12/01 05:00:36;;;;;;;68.47;27.25;;;;;;;-4.15;81.28;98547.45;1783706;79;21083;-72
2020/12/01 05:03:19;;;;;;;77.22;32.67;;;;;;;-4.29;81.28;98542.38;1815418;79;21041;-72
2020/12/01 05:08:48;;;;;;;59.58;25.02;;;;;;;-4.33;81.51;98553.00;1801184;79;21083;-71
2020/12/01 05:11:38;;;;;;;62.67;28.92;;;;;;;-4.40;81.27;98556.00;1815373;79;21397;-71
2020/12/01 05:14:36;;;;;;;61.63;31.55;;;;;;;-4.43;81.16;98559.83;1815300;79;21083;-71
2020/12/01 05:17:25;;;;;;;105.12;47.08;;;;;;;-4.44;80.79;98563.94;1815328;79;21563;-72
2020/12/01 05:19:50;;;;;;;;;;;;;;;-4.49;81.07;98551.73;1818151;78;21123;-72
2020/12/01 05:22:18;;;;;;;82.85;39.13;;;;;;;-4.54;81.04;98552.23;1815378;78;20180;-71
2020/12/01 05:24:49;;;;;;;60.73;31.05;;;;;;;-4.55;81.23;98559.34;1783650;79;21054;-72
2020/12/01 05:27:35;;;;;;;66.90;32.00;;;;;;;-4.47;81.81;98549.74;1815234;79;21118;-72
2020/12/01 05:30:23;;;;;;;72.42;32.88;;;;;;;-4.37;81.76;98559.62;1815422;79;21027;-72
2020/12/01 05:33:03;;;;;;;52.15;22.98;;;;;;;-4.30;81.52;98553.97;1815489;79;21130;-72
2020/12/01 05:35:32;;;;;;;49.60;25.48;;;;;;;-4.43;80.37;98550.56;1815156;79;21098;-70
2020/12/01 05:38:00;;;;;;;;;;;;;;;-4.52;80.42;98543.66;1817975;78;21126;-72
2020/12/01 05:40:29;;;;;;;63.20;29.27;;;;;;;-4.59;80.34;98541.36;1815214;79;20277;-72
2020/12/01 05:42:54;;;;;;;54.40;27.20;;;;;;;-4.64;80.47;98541.86;1815804;78;21150;-72
2020/12/01 05:45:25;;;;;;;74.85;31.48;;;;;;;-4.66;80.76;98543.03;1815511;79;21129;-74
2020/12/01 05:47:56;;;;;;;82.72;33.02;;;;;;;-4.67;81.19;98541.39;1815523;79;21599;-72
2020/12/01 05:50:24;;;;;;;75.25;33.78;;;;;;;-4.66;81.29;98545.67;1815638;79;21226;-73
2020/12/01 05:53:02;;;;;;;58.55;27.05;;;;;;;-4.63;81.50;98542.68;1815619;78;21468;-72
2020/12/01 05:55:27;;;;;;;56.13;25.75;;;;;;;-4.59;81.08;98545.33;1814776;78;21150;-72
2020/12/01 05:58:08;;;;;;;79.67;34.53;;;;;;;-4.64;80.51;98539.21;1815496;79;20988;-72
2020/12/01 06:00:37;;;;;;;123.65;42.38;;;;;;;-4.66;80.67;98542.53;1814697;79;21039;-71
2020/12/01 06:03:20;;;;;;;;;;;;;;;-4.61;80.99;98546.00;1817686;79;21238;-73
2020/12/01 06:05:52;;;;;;;54.27;27.62;;;;;;;-4.69;80.43;98540.23;1815496;79;20220;-71
2020/12/01 06:08:31;;;;;;;62.50;26.70;;;;;;;-4.70;80.35;98540.38;1815513;79;21170;-72
2020/12/01 06:11:25;;;;;;;69.35;28.90;;;;;;;-4.76;80.04;98549.02;1814982;79;21119;-73
2020/12/01 06:13:50;;;;;;;82.20;31.62;;;;;;;-4.76;80.32;98550.34;1788964;79;21091;-71
2020/12/01 06:16:40;;;;;;;64.87;32.70;;;;;;;-4.79;79.91;98554.13;1815549;79;21368;-71
2020/12/01 06:19:20;;;;;;;56.30;26.60;;;;;;;-4.84;80.16;98548.03;1815429;79;21099;-71
2020/12/01 06:22:12;;;;;;;55.70;26.65;;;;;;;-4.93;79.50;98542.44;1815441;79;21202;-73
2020/12/01 06:25:16;;;;;;;58.02;31.23;;;;;;;-4.98;79.73;98544.75;1815524;78;21091;-72
2020/12/01 06:27:59;;;;;;;70.55;28.83;;;;;;;-4.99;80.05;98548.89;1814439;79;21023;-71
2020/12/01 06:30:49;;;;;;;65.52;29.00;;;;;;;-4.98;80.13;98542.11;1815359;79;21162;-72
2020/12/01 06:33:44;;;;;;;63.40;27.75;;;;;;;-5.00;79.99;98544.10;1815455;78;21130;-71
2020/12/01 06:36:49;;;;;;;62.62;28.90;;;;;;;-4.98;79.99;98542.61;1814856;79;21579;-71
2020/12/01 06:39:28;;;;;;;58.92;31.35;;;;;;;-5.06;79.23;98539.98;1815436;79;21035;-72
2020/12/01 06:42:15;;;;;;;73.87;33.65;;;;;;;-5.06;79.87;98542.62;1815630;79;21444;-72
2020/12/01 06:44:43;;;;;;;68.75;33.08;;;;;;;-5.11;79.55;98541.31;1815534;79;21261;-72
2020/12/01 06:47:08;;;;;;;70.42;32.78;;;;;;;-5.15;79.46;98537.34;1784000;79;21154;-73
2020/12/01 06:49:34;;;;;;;72.25;33.08;;;;;;;-5.18;79.66;98536.86;1815451;79;20896;-73
2020/12/01 06:52:07;;;;;;;72.97;33.70;;;;;;;-5.28;79.22;98532.25;1815430;79;21523;-72
2020/12/01 06:54:33;;;;;;;68.20;31.30;;;;;;;-5.35;79.59;98532.59;1814679;79;21066;-72
2020/12/01 06:57:05;;;;;;;93.92;40.73;;;;;;;-5.39;79.60;98543.97;1815470;79;21814;-72
2020/12/01 06:59:31;;;;;;;82.60;43.40;;;;;;;-5.32;80.19;98534.39;1815379;78;21095;-72
2020/12/01 07:02:10;;;;;;;98.22;50.95;;;;;;;-5.24;80.06;98542.80;1815432;79;21554;-72
2020/12/01 07:04:36;;;;;;;82.37;38.10;;;;;;;-5.26;79.59;98544.80;1800855;78;21103;-71
2020/12/01 07:07:03;;;;;;;72.42;34.90;;;;;;;-5.25;79.77;98542.48;1815368;79;20873;-70
2020/12/01 07:09:34;;;;;;;71.00;31.15;;;;;;;-5.26;79.53;98546.94;1815495;78;21206;-70
2020/12/01 07:12:20;;;;;;;67.35;29.52;;;;;;;-5.30;79.39;98536.86;1812771;79;21170;-72
2020/12/01 07:14:46;;;;;;;69.10;27.45;;;;;;;-5.29;79.66;98539.86;1813802;79;21043;-72
2020/12/01 07:17:31;;;;;;;69.70;32.88;;;;;;;-5.33;79.96;98541.98;1815429;79;21428;-71
2020/12/01 07:20:23;;;;;;;70.85;33.28;;;;;;;-5.31;80.07;98532.57;1815507;79;21115;-72
2020/12/01 07:23:23;;;;;;;68.40;34.03;;;;;;;-5.24;80.49;98530.92;1790693;78;22010;-72
2020/12/01 07:26:23;;;;;;;58.63;28.00;;;;;;;-5.11;79.98;98531.24;1790547;80;21171;-71
2020/12/01 07:28:54;;;;;;;73.05;30.52;;;;;;;-5.09;79.44;98533.72;1738508;79;21540;-71
2020/12/01 07:31:25;;;;;;;68.47;31.95;;;;;;;-5.05;79.92;98528.41;1814823;79;21091;-72
2020/12/01 07:34:09;;;;;;;68.22;32.53;;;;;;;-4.98;80.10;98526.25;1783574;79;21453;-72
2020/12/01 07:36:44;;;;;;;107.83;50.35;;;;;;;-4.88;80.18;98516.30;1813285;79;21163;-71
2020/12/01 07:39:18;;;;;;;168.22;85.17;;;;;;;-4.79;80.07;98521.57;1813970;79;21211;-72
2020/12/01 07:41:51;;;;;;;143.40;68.07;;;;;;;-4.73;79.78;98530.98;1815454;79;21083;-73
2020/12/01 07:44:20;;;;;;;141.35;64.77;;;;;;;-4.72;79.62;98529.16;1815565;78;21047;-72
2020/12/01 07:46:54;;;;;;;135.57;64.72;;;;;;;-4.62;79.90;98525.31;1815472;78;21099;-72
2020/12/01 07:49:22;;;;;;;101.95;47.80;;;;;;;-4.58;79.51;98527.14;1810653;78;21822;-72
2020/12/01 07:51:48;;;;;;;105.70;48.95;;;;;;;-4.55;79.13;98521.49;1815345;79;21571;-71
2020/12/01 07:54:23;;;;;;;97.27;47.73;;;;;;;-4.44;79.82;98526.90;1815358;79;21032;-72
2020/12/01 07:56:49;;;;;;;108.07;48.75;;;;;;;-4.31;80.12;98528.51;1815485;79;21127;-72
2020/12/01 07:59:15;;;;;;;112.00;49.45;;;;;;;-4.17;80.01;98526.46;1815360;78;20972;-72
2020/12/01 08:01:42;;;;;;;122.60;56.37;;;;;;;-4.05;80.18;98527.70;1815380;79;21203;-71
2020/12/01 08:04:18;;;;;;;84.10;39.03;;;;;;;-3.96;79.70;98531.13;1815324;79;21171;-72
2020/12/01 08:06:44;;;;;;;126.60;50.85;;;;;;;-3.89;79.54;98536.06;1815424;79;21119;-72
2020/12/01 08:09:17;;;;;;;127.22;54.70;;;;;;;-3.78;79.33;98532.17;1815372;78;21027;-73
2020/12/01 08:11:43;;;;;;;114.17;45.80;;;;;;;-3.75;79.40;98536.64;1815012;79;21114;-71
2020/12/01 08:14:10;;;;;;;190.30;81.63;;;;;;;-3.70;79.05;98536.09;1815339;79;21184;-72
2020/12/01 08:16:35;;;;;;;96.08;46.73;;;;;;;-3.65;79.33;98532.42;1815450;79;21532;-72
2020/12/01 08:19:02;;;;;;;222.05;107.15;;;;;;;-3.53;79.19;98534.15;1815345;79;20885;-72
2020/12/01 08:21:37;;;;;;;167.20;62.00;;;;;;;-3.48;78.81;98541.90;1815404;79;21118;-72
2020/12/01 08:24:07;;;;;;;169.05;66.17;;;;;;;-3.47;78.70;98541.40;1785451;79;21099;-70
2020/12/01 08:26:35;;;;;;;83.97;36.70;;;;;;;-3.45;78.73;98539.39;1815319;79;21115;-71
2020/12/01 08:29:15;;;;;;;84.97;38.85;;;;;;;-3.32;78.40;98546.25;1783511;79;21067;-72
2020/12/01 08:31:50;;;;;;;154.97;70.57;;;;;;;-3.36;78.52;98544.94;1815438;78;21083;-71
2020/12/01 08:34:46;;;;;;;141.45;61.63;;;;;;;-3.30;78.72;98542.91;1815353;79;21047;-71
2020/12/01 08:37:38;;;;;;;79.27;34.60;;;;;;;-3.20;78.62;98546.64;1815395;79;21088;-71
2020/12/01 08:40:15;;;;;;;131.20;62.65;;;;;;;-3.03;78.01;98549.47;1815164;79;21916;-71
2020/12/01 08:43:17;;;;;;;140.25;53.70;;;;;;;-3.00;77.72;98542.47;1815341;79;21047;-70
2020/12/01 08:45:53;;;;;;;92.70;40.20;;;;;;;-2.93;77.82;98542.57;1814245;79;21059;-72
2020/12/01 08:48:27;;;;;;;92.53;42.35;;;;;;;-2.85;77.47;98536.69;1815335;79;21028;-72
2020/12/01 08:51:07;;;;;;;81.75;39.92;;;;;;;-2.78;77.40;98535.97;1815440;79;21020;-70
2020/12/01 08:53:46;;;;;;;101.72;50.70;;;;;;;-2.70;77.17;98539.36;1813581;79;21261;-71
2020/12/01 08:56:22;;;;;;;;;;;;;;;-2.60;76.67;98529.28;1818031;79;21099;-73
2020/12/01 08:58:48;;;;;;;71.60;35.38;;;;;;;-2.58;77.19;98529.09;1815419;78;20248;-71
2020/12/01 09:01:14;;;;;;;101.12;48.73;;;;;;;-2.52;77.14;98531.53;1815387;79;21182;-71
2020/12/01 09:03:52;;;;;;;77.70;35.70;;;;;;;-2.48;76.37;98536.78;1815437;79;21607;-72
2020/12/01 09:06:32;;;;;;;78.57;37.90;;;;;;;-2.37;77.05;98535.01;1813696;79;21556;-71
2020/12/01 09:09:04;;;;;;;84.83;42.10;;;;;;;-2.29;76.98;98532.25;1815322;79;21094;-73
2020/12/01 09:11:49;;;;;;;70.92;33.88;;;;;;;-2.19;76.98;98534.62;1815018;79;21091;-72
2020/12/01 09:16:58;;;;;;;108.92;46.58;;;;;;;-2.00;76.49;98530.04;1815427;79;21087;-72
2020/12/01 09:22:33;;;;;;;105.10;46.77;;;;;;;-1.80;76.18;98539.55;1815258;79;21173;-70
2020/12/01 09:25:18;;;;;;;103.97;47.62;;;;;;;-1.69;75.98;98532.43;1815427;78;21028;-71
2020/12/01 09:27:45;;;;;;;80.60;34.92;;;;;;;-1.65;75.79;98535.01;1815342;79;21174;-70
2020/12/01 09:30:20;;;;;;;90.87;37.75;;;;;;;-1.56;75.81;98531.22;1815321;79;21115;-71
2020/12/01 09:32:46;;;;;;;125.92;58.23;;;;;;;-1.43;75.70;98534.52;1801710;79;21182;-71
2020/12/01 09:35:12;;;;;;;122.70;54.30;;;;;;;-1.31;75.73;98540.96;1815293;79;21055;-71
2020/12/01 09:37:38;;;;;;;59.25;30.10;;;;;;;-1.06;75.03;98527.26;1815366;79;20897;-72
2020/12/01 09:40:03;;;;;;;76.07;36.65;;;;;;;-1.06;75.03;98527.26;1815300;78;21059;-72
2020/12/01 09:42:35;;;;;;;84.40;37.28;;;;;;;-1.00;75.53;98516.67;1815259;79;20929;-72
2020/12/01 09:45:10;;;;;;;158.37;84.70;;;;;;;-0.87;74.61;98515.42;1814824;79;21203;-71
2020/12/01 09:47:49;;;;;;;77.62;37.80;;;;;;;-0.78;74.99;98511.27;1783059;79;21051;-72
2020/12/01 09:50:25;;;;;;;74.50;37.00;;;;;;;-0.71;75.07;98512.97;1814578;79;21064;-72
2020/12/01 09:53:10;;;;;;;95.38;46.83;;;;;;;-0.65;75.27;98506.05;1815339;79;21269;-73
2020/12/01 09:58:57;;;;;;;73.67;33.45;;;;;;;-0.42;74.24;98503.11;1815340;78;20909;-72
2020/12/01 10:08:25;;;;;;;91.02;36.05;;;;;;;-0.11;73.75;98482.11;1750423;81;21141;-71
2020/12/01 10:13:42;;;;;;;75.10;33.80;;;;;;;0.03;73.68;98482.17;1815359;79;21281;-72
2020/12/01 10:34:54;;;;;;;472.77;216.08;;;;;;;0.64;72.19;98475.39;1815394;79;21631;-72
2020/12/01 10:37:17;;;;;;;107.50;49.42;;;;;;;0.71;71.05;98469.03;1814705;79;21551;-72
2020/12/01 10:39:43;;;;;;;143.70;57.13;;;;;;;0.75;71.76;98480.92;1815368;78;21562;-71
2020/12/01 10:42:10;;;;;;;126.87;56.15;;;;;;;0.79;72.14;98474.16;1815423;79;20858;-72
2020/12/01 10:44:36;;;;;;;102.32;45.67;;;;;;;0.81;70.73;98469.95;1815377;79;21107;-71
2020/12/01 10:47:01;;;;;;;71.05;31.75;;;;;;;0.86;72.45;98474.68;1815529;78;20905;-72
2020/12/01 10:49:27;;;;;;;68.22;31.02;;;;;;;0.89;71.95;98468.41;1815328;79;22114;-72
2020/12/01 10:51:53;;;;;;;96.63;35.75;;;;;;;0.91;72.56;98478.34;1815368;79;20912;-71
2020/12/01 10:54:18;;;;;;;71.90;33.53;;;;;;;0.98;71.29;98475.68;1815411;78;20909;-72
2020/12/01 10:56:48;;;;;;;43.63;20.90;;;;;;;1.00;70.95;98472.28;1815495;78;20948;-71
2020/12/01 10:59:15;;;;;;;54.65;24.85;;;;;;;1.01;70.82;98476.59;1815420;79;21021;-71
2020/12/01 11:01:40;;;;;;;48.95;23.15;;;;;;;1.04;70.41;98469.52;1815531;79;21328;-71
2020/12/01 11:04:06;;;;;;;43.55;21.27;;;;;;;1.05;70.83;98477.83;1815465;79;21893;-72
2020/12/01 11:06:32;;;;;;;133.65;64.62;;;;;;;1.09;70.52;98476.37;1815489;79;20925;-72
2020/12/01 11:08:57;;;;;;;78.67;39.55;;;;;;;1.15;69.62;98474.22;1815520;78;21023;-72
2020/12/01 11:11:23;;;;;;;125.18;42.85;;;;;;;1.18;69.75;98472.98;1815525;79;20912;-71
2020/12/01 11:13:49;;;;;;;232.10;99.75;;;;;;;1.25;68.58;98467.11;1815408;79;21159;-72
2020/12/01 11:16:15;;;;;;;121.45;59.18;;;;;;;1.22;69.07;98465.69;1815460;78;21022;-72
2020/12/01 11:18:41;;;;;;;110.97;40.63;;;;;;;1.28;69.28;98465.34;1815487;78;20916;-72
2020/12/01 11:21:06;;;;;;;88.42;34.10;;;;;;;1.32;68.57;98469.26;1815376;79;20964;-72
2020/12/01 11:23:32;;;;;;;59.50;24.45;;;;;;;1.31;69.48;98467.11;1783501;79;20983;-72
2020/12/01 11:25:58;;;;;;;33.13;16.40;;;;;;;1.36;67.98;98461.94;1815438;79;21275;-71
2020/12/01 11:28:24;;;;;;;53.98;25.15;;;;;;;1.40;67.86;98465.84;1815251;79;20909;-71
2020/12/01 11:30:50;;;;;;;66.33;25.20;;;;;;;1.36;68.66;98466.45;1815384;79;21023;-72
2020/12/01 11:33:15;;;;;;;34.98;17.23;;;;;;;1.42;67.52;98468.30;1815400;78;20940;-71
2020/12/01 11:35:42;;;;;;;48.08;21.73;;;;;;;1.37;68.22;98464.13;1815405;79;20974;-72
2020/12/01 11:38:07;;;;;;;51.35;21.70;;;;;;;1.38;67.70;98465.76;1815361;79;21856;-72
2020/12/01 11:40:33;;;;;;;68.15;27.27;;;;;;;1.43;66.61;98461.92;1815224;79;21011;-72
2020/12/01 11:42:59;;;;;;;56.13;23.38;;;;;;;1.46;66.02;98460.19;1815430;78;20893;-71
2020/12/01 11:45:26;;;;;;;38.35;18.80;;;;;;;1.43;67.38;98460.59;1815293;79;20971;-71
2020/12/01 11:47:52;;;;;;;74.70;37.00;;;;;;;1.50;66.29;98459.23;1815352;79;21551;-71
2020/12/01 11:50:18;;;;;;;44.60;22.30;;;;;;;1.50;67.11;98460.06;1783592;79;22123;-72
2020/12/01 11:52:44;;;;;;;49.67;22.82;;;;;;;1.58;67.08;98453.15;1815390;79;20933;-72
2020/12/01 11:55:09;;;;;;;103.65;43.85;;;;;;;1.61;66.81;98452.71;1815353;79;20905;-72
2020/12/01 11:57:35;;;;;;;42.70;18.50;;;;;;;1.64;67.47;98455.50;1815423;78;20920;-72
2020/12/01 12:00:01;;;;;;;27.02;14.28;;;;;;;1.69;66.31;98451.14;1815332;79;21087;-72
2020/12/01 12:02:27;;;;;;;38.23;17.57;;;;;;;1.69;66.82;98458.34;1815419;79;21192;-71
2020/12/01 12:04:53;;;;;;;27.45;14.85;;;;;;;1.67;66.99;98447.87;1815225;79;20905;-71
2020/12/01 12:07:19;;;;;;;37.63;16.37;;;;;;;1.69;66.88;98447.65;1815355;79;21207;-71
2020/12/01 12:09:45;;;;;;;34.80;18.67;;;;;;;1.72;66.53;98446.42;1815390;78;20908;-72
2020/12/01 12:12:10;;;;;;;42.25;21.42;;;;;;;1.73;66.39;98443.53;1815445;78;21011;-71
2020/12/01 12:14:36;;;;;;;32.40;18.82;;;;;;;1.75;66.86;98444.66;1815291;79;21091;-72
2020/12/01 12:17:02;;;;;;;34.80;17.82;;;;;;;1.77;66.15;98435.91;1783506;79;21031;-72